Time;durP1;ratioP1;P1;durP2;ratioP2;P2;SDS_P1;SDS_P2;PMS_P1;PMS_P2;Temp;Humidity;BMP_temperature;BMP_pressure;BME280_temperature;BME280_humidity;BME280_pressure;Samples;Min_cycle;Max_cycle;Signal;HPM_P1;HPM_P2
2022/03/17 00:00:09;;;;;;;23.23;16.98;;;11.30;99.90;;;;;;5052600;28;20041;-75
2022/03/17 00:02:36;;;;;;;21.48;14.15;;;11.30;99.90;;;;;;5050410;28;20435;-75
2022/03/17 00:05:02;;;;;;;24.30;16.45;;;11.30;99.90;;;;;;5084760;28;20477;-75
2022/03/17 00:07:30;;;;;;;24.02;18.00;;;11.20;99.90;;;;;;5038958;28;20055;-74
2022/03/17 00:09:56;;;;;;;23.77;17.70;;;11.20;99.90;;;;;;5031400;28;20049;-74
2022/03/17 00:12:22;;;;;;;19.30;13.45;;;11.20;99.90;;;;;;5032507;28;20116;-74
2022/03/17 00:14:48;;;;;;;23.52;17.23;;;11.00;99.90;;;;;;5031252;28;20125;-75
2022/03/17 00:17:13;;;;;;;26.95;17.55;;;11.00;99.90;;;;;;5031028;28;20041;-74
2022/03/17 00:19:39;;;;;;;23.63;17.60;;;11.00;99.90;;;;;;5031376;28;20050;-75
2022/03/17 00:22:08;;;;;;;21.48;15.77;;;11.00;99.90;;;;;;5047568;28;20049;-75
2022/03/17 00:24:36;;;;;;;21.27;14.75;;;10.90;99.90;;;;;;5032317;28;20057;-75
2022/03/17 00:27:05;;;;;;;21.50;15.23;;;10.90;99.90;;;;;;5047625;28;20076;-75
2022/03/17 00:29:33;;;;;;;29.42;17.35;;;10.90;99.90;;;;;;5032431;28;20033;-75
2022/03/17 00:31:59;;;;;;;23.25;17.85;;;10.90;99.90;;;;;;5062047;28;20063;-76
2022/03/17 00:34:25;;;;;;;24.52;14.38;;;11.00;99.90;;;;;;5032186;28;20048;-74
2022/03/17 00:36:50;;;;;;;22.80;16.17;;;11.00;99.90;;;;;;5030882;28;20045;-75
2022/03/17 00:39:16;;;;;;;24.17;18.10;;;11.00;99.90;;;;;;5032025;28;20095;-75
2022/03/17 00:41:45;;;;;;;23.40;17.00;;;11.00;99.90;;;;;;5030724;28;20045;-75
2022/03/17 00:44:12;;;;;;;24.00;16.95;;;11.00;99.90;;;;;;5032238;28;20401;-75
2022/03/17 00:46:38;;;;;;;21.20;16.75;;;11.00;99.90;;;;;;5064119;28;20429;-74
2022/03/17 00:49:04;;;;;;;25.70;17.15;;;11.00;99.90;;;;;;5030918;28;20041;-75
2022/03/17 00:51:30;;;;;;;23.98;17.60;;;11.00;99.90;;;;;;5030638;28;20123;-74
2022/03/17 00:53:56;;;;;;;22.83;16.05;;;11.00;99.90;;;;;;5032179;28;20065;-75
2022/03/17 00:56:22;;;;;;;24.10;15.80;;;11.10;99.90;;;;;;5031994;28;20045;-75
2022/03/17 00:58:48;;;;;;;20.35;13.88;;;11.10;99.90;;;;;;5031996;28;20514;-75
2022/03/17 01:01:18;;;;;;;24.08;18.00;;;11.10;99.90;;;;;;5045906;28;20405;-75
2022/03/17 01:03:46;;;;;;;18.80;13.43;;;11.10;99.90;;;;;;5047649;28;20413;-74
2022/03/17 01:06:12;;;;;;;19.55;13.05;;;11.10;99.90;;;;;;5033237;28;20045;-75
2022/03/17 01:08:38;;;;;;;23.40;15.40;;;11.10;99.90;;;;;;5053163;28;20124;-75
2022/03/17 01:11:05;;;;;;;24.13;16.73;;;11.20;99.90;;;;;;5056039;28;20032;-74
2022/03/17 01:13:32;;;;;;;26.77;18.90;;;11.20;99.90;;;;;;5038217;28;20052;-75
2022/03/17 01:15:58;;;;;;;23.75;17.65;;;11.20;99.90;;;;;;5055815;28;20474;-75
2022/03/17 01:18:24;;;;;;;27.25;18.48;;;11.20;99.90;;;;;;5055765;28;20075;-75
2022/03/17 01:20:50;;;;;;;24.27;15.68;;;11.20;99.90;;;;;;5070844;28;20139;-75
2022/03/17 01:23:17;;;;;;;18.60;13.32;;;11.20;99.90;;;;;;5054388;28;20075;-75
2022/03/17 01:25:43;;;;;;;22.45;16.25;;;11.20;99.90;;;;;;5055858;28;20102;-75
2022/03/17 01:28:09;;;;;;;25.05;17.45;;;11.20;99.90;;;;;;5054418;28;20138;-74
2022/03/17 01:30:35;;;;;;;25.83;17.83;;;11.20;99.90;;;;;;5088150;28;20045;-75
2022/03/17 01:33:04;;;;;;;25.58;16.60;;;11.10;99.90;;;;;;5051784;28;20489;-75
2022/03/17 01:35:30;;;;;;;26.27;18.80;;;11.10;99.90;;;;;;5055343;28;20508;-74
2022/03/17 01:37:56;;;;;;;23.30;14.95;;;11.00;99.90;;;;;;5055285;28;20036;-75
2022/03/17 01:40:22;;;;;;;27.73;19.73;;;10.90;99.90;;;;;;5071108;28;20056;-75
2022/03/17 01:42:47;;;;;;;27.52;19.88;;;10.80;99.90;;;;;;5055361;28;20441;-75
2022/03/17 01:45:15;;;;;;;26.63;19.83;;;10.70;99.90;;;;;;5055291;28;20394;-74
2022/03/17 01:47:42;;;;;;;26.70;20.15;;;10.60;99.90;;;;;;5070349;28;20036;-74
2022/03/17 01:50:11;;;;;;;28.77;20.10;;;10.60;99.90;;;;;;5070483;28;20037;-75
2022/03/17 01:52:38;;;;;;;29.13;21.70;;;10.50;99.90;;;;;;5054034;28;20037;-74
2022/03/17 01:55:06;;;;;;;27.20;20.08;;;10.40;99.90;;;;;;5087416;28;20564;-74
2022/03/17 01:57:32;;;;;;;26.98;17.38;;;10.40;99.90;;;;;;5087342;28;20057;-74
2022/03/17 02:00:00;;;;;;;31.70;21.52;;;10.40;99.90;;;;;;5054957;28;20053;-74
2022/03/17 02:02:26;;;;;;;31.98;21.70;;;10.40;99.90;;;;;;5052397;28;20504;-75
2022/03/17 02:04:53;;;;;;;30.58;22.10;;;10.30;99.90;;;;;;5087186;28;20505;-74
2022/03/17 02:07:20;;;;;;;26.65;17.50;;;10.30;99.90;;;;;;5075888;28;20124;-74
2022/03/17 02:09:48;;;;;;;30.88;21.38;;;10.40;99.90;;;;;;5033602;28;20046;-74
2022/03/17 02:15:03;;;;;;;31.83;20.08;;;10.40;99.90;;;;;;5067288;28;20072;-74
2022/03/17 02:17:30;;;;;;;30.50;19.65;;;10.40;99.90;;;;;;5050137;28;20083;-74
2022/03/17 02:20:00;;;;;;;32.28;22.38;;;10.50;99.90;;;;;;5033200;28;20038;-74
2022/03/17 02:22:28;;;;;;;31.75;20.88;;;10.40;99.90;;;;;;5033302;28;20057;-75
2022/03/17 02:27:45;;;;;;;32.08;22.77;;;10.50;99.90;;;;;;5034276;28;20049;-74
2022/03/17 02:30:13;;;;;;;32.38;22.38;;;10.50;99.90;;;;;;5033190;28;20043;-75
2022/03/17 02:32:39;;;;;;;32.38;21.80;;;10.50;99.90;;;;;;5047443;28;20037;-75
2022/03/17 02:35:07;;;;;;;25.58;17.55;;;10.50;99.90;;;;;;5050026;28;20041;-74
2022/03/17 02:37:33;;;;;;;29.90;18.38;;;10.60;99.90;;;;;;5034169;28;20077;-74
2022/03/17 02:40:05;;;;;;;30.17;22.15;;;10.50;99.90;;;;;;5033033;28;20060;-74
2022/03/17 02:42:31;;;;;;;28.30;18.95;;;10.50;99.90;;;;;;5034157;28;20103;-74
2022/03/17 02:45:01;;;;;;;29.65;19.98;;;10.60;99.90;;;;;;5049545;28;20048;-75
2022/03/17 02:47:28;;;;;;;29.17;21.10;;;10.60;99.90;;;;;;5049420;28;20041;-74
2022/03/17 02:49:57;;;;;;;32.05;21.42;;;10.60;99.90;;;;;;5034140;28;20409;-75
2022/03/17 02:52:25;;;;;;;28.42;19.65;;;10.60;99.90;;;;;;5033967;28;20501;-74
2022/03/17 02:54:52;;;;;;;24.58;16.27;;;10.60;99.90;;;;;;5034012;28;20029;-74
2022/03/17 02:57:19;;;;;;;34.92;21.58;;;10.70;99.90;;;;;;5033125;28;20150;-75
2022/03/17 02:59:46;;;;;;;28.50;18.40;;;10.70;99.90;;;;;;5032732;28;20624;-75
2022/03/17 03:02:14;;;;;;;34.08;18.52;;;10.70;99.90;;;;;;5030149;28;20049;-75
2022/03/17 03:04:40;;;;;;;33.63;23.48;;;10.70;99.90;;;;;;5033813;28;20497;-75
2022/03/17 03:07:07;;;;;;;32.15;21.90;;;10.70;99.90;;;;;;5058076;28;20107;-75
2022/03/17 03:09:33;;;;;;;27.88;16.77;;;10.80;99.90;;;;;;5052881;28;20044;-75
2022/03/17 03:12:00;;;;;;;29.25;17.65;;;10.80;99.90;;;;;;5052572;28;20040;-75
2022/03/17 03:14:26;;;;;;;33.40;22.48;;;10.70;99.90;;;;;;5085900;28;20032;-74
2022/03/17 03:16:52;;;;;;;35.20;22.60;;;10.80;99.90;;;;;;5053661;28;20037;-75
2022/03/17 03:19:18;;;;;;;34.40;21.30;;;10.70;99.90;;;;;;5068903;28;20071;-74
2022/03/17 03:21:44;;;;;;;33.85;23.67;;;10.70;99.90;;;;;;5085539;28;20071;-73
2022/03/17 03:24:11;;;;;;;42.33;25.67;;;10.60;99.90;;;;;;5085836;28;20056;-73
2022/03/17 03:26:37;;;;;;;42.08;25.30;;;10.40;99.90;;;;;;5052234;28;20452;-73
2022/03/17 03:31:53;;;;;;;39.80;24.90;;;10.10;99.90;;;;;;5048817;28;20528;-74
2022/03/17 03:34:20;;;;;;;40.65;25.35;;;10.10;99.90;;;;;;5053011;28;20044;-74
2022/03/17 03:39:31;;;;;;;42.45;24.98;;;9.90;99.90;;;;;;5052006;28;20099;-73
2022/03/17 03:41:57;;;;;;;43.78;26.40;;;9.80;99.90;;;;;;5053040;28;20044;-74
2022/03/17 03:44:23;;;;;;;47.72;26.70;;;9.80;99.90;;;;;;5052954;28;20044;-73
2022/03/17 03:46:49;;;;;;;42.80;22.15;;;9.80;99.90;;;;;;5035156;28;20041;-73
2022/03/17 03:49:15;;;;;;;45.55;27.33;;;9.70;99.90;;;;;;5037735;28;20044;-73
2022/03/17 03:51:41;;;;;;;50.10;29.83;;;9.80;99.90;;;;;;5051640;28;20033;-73
2022/03/17 03:54:13;;;;;;;45.65;28.50;;;9.70;99.90;;;;;;5051663;28;20033;-73
2022/03/17 03:56:40;;;;;;;42.63;27.20;;;9.70;99.90;;;;;;5052773;28;20052;-73
2022/03/17 03:59:13;;;;;;;45.97;27.67;;;9.70;99.90;;;;;;5051648;28;20045;-73
2022/03/17 04:01:39;;;;;;;50.50;31.58;;;9.70;99.90;;;;;;5050237;28;20460;-73
2022/03/17 04:04:05;;;;;;;55.95;32.90;;;9.70;99.90;;;;;;5085149;28;20508;-73
2022/03/17 04:06:34;;;;;;;51.83;30.38;;;9.60;99.90;;;;;;5080488;28;20041;-73
2022/03/17 04:08:59;;;;;;;38.15;21.95;;;9.60;99.90;;;;;;5031279;28;20175;-73
2022/03/17 04:11:25;;;;;;;39.70;23.65;;;9.70;99.90;;;;;;5031316;28;20116;-74
2022/03/17 04:13:51;;;;;;;63.75;38.50;;;9.70;99.90;;;;;;5047756;28;20048;-74
2022/03/17 04:16:17;;;;;;;75.38;40.75;;;9.70;99.90;;;;;;5031482;28;20049;-73
2022/03/17 04:18:43;;;;;;;73.70;39.58;;;9.70;99.90;;;;;;5064806;28;20048;-72
2022/03/17 04:21:08;;;;;;;44.35;24.27;;;9.70;99.90;;;;;;5032345;28;20050;-77
2022/03/17 04:23:34;;;;;;;18.13;12.80;;;9.70;99.90;;;;;;5049244;28;20095;-74
2022/03/17 04:26:00;;;;;;;17.40;11.32;;;9.60;99.90;;;;;;5048033;28;20129;-73
2022/03/17 04:28:26;;;;;;;15.98;10.88;;;9.40;99.90;;;;;;5031519;28;20045;-74
2022/03/17 04:30:52;;;;;;;16.20;10.27;;;9.20;99.90;;;;;;5048078;28;20120;-71
2022/03/17 04:33:17;;;;;;;13.95;9.80;;;8.90;99.90;;;;;;5045795;28;20041;-74
2022/03/17 04:35:43;;;;;;;18.40;10.57;;;8.80;99.90;;;;;;5032287;28;20045;-74
2022/03/17 04:38:09;;;;;;;16.50;11.27;;;8.70;99.90;;;;;;5031106;28;20092;-74
2022/03/17 04:40:35;;;;;;;16.85;10.40;;;8.60;99.90;;;;;;5064463;28;20042;-72
2022/03/17 04:43:01;;;;;;;14.90;9.95;;;8.50;99.90;;;;;;5032358;28;20059;-73
2022/03/17 04:45:26;;;;;;;15.38;8.68;;;8.40;99.90;;;;;;5033347;28;20069;-72
2022/03/17 04:47:52;;;;;;;12.73;8.32;;;8.40;99.90;;;;;;5047414;28;20034;-70
2022/03/17 04:50:18;;;;;;;11.82;8.05;;;8.30;99.90;;;;;;5064473;28;20041;-70
2022/03/17 04:55:28;;;;;;;11.15;8.30;;;8.20;99.90;;;;;;5064236;28;20067;-70
2022/03/17 04:57:54;;;;;;;12.95;8.05;;;8.20;99.90;;;;;;5030965;28;20079;-70
2022/03/17 05:00:20;;;;;;;16.15;9.13;;;8.20;99.90;;;;;;5047595;28;20436;-70
2022/03/17 05:02:46;;;;;;;18.27;10.38;;;8.10;99.90;;;;;;5028780;28;20080;-69
2022/03/17 05:05:12;;;;;;;17.98;11.20;;;8.10;99.90;;;;;;5030628;28;20045;-70
2022/03/17 05:07:38;;;;;;;20.40;11.25;;;8.00;99.90;;;;;;5043933;28;20166;-71
2022/03/17 05:10:04;;;;;;;18.83;10.68;;;8.00;99.90;;;;;;5050613;28;20040;-71
2022/03/17 05:12:30;;;;;;;19.08;10.38;;;8.00;99.90;;;;;;5050520;28;20037;-69
2022/03/17 05:14:56;;;;;;;22.63;10.63;;;8.00;99.90;;;;;;5052081;28;20048;-70
2022/03/17 05:17:22;;;;;;;18.90;10.93;;;8.00;99.90;;;;;;5050612;28;20056;-70
2022/03/17 05:19:47;;;;;;;23.30;10.32;;;8.00;99.90;;;;;;5084126;28;20128;-70
2022/03/17 05:22:13;;;;;;;22.92;10.18;;;7.90;99.90;;;;;;5083962;28;20057;-69
2022/03/17 05:24:40;;;;;;;19.33;10.20;;;7.90;99.90;;;;;;5050804;28;20083;-70
2022/03/17 05:27:05;;;;;;;20.42;8.98;;;7.90;99.90;;;;;;5052989;28;20091;-70
2022/03/17 05:29:31;;;;;;;16.67;8.98;;;7.90;99.90;;;;;;5050350;28;20084;-70
2022/03/17 05:31:57;;;;;;;19.52;8.82;;;7.90;99.90;;;;;;5048594;28;20128;-70
2022/03/17 05:34:23;;;;;;;19.85;9.35;;;7.90;99.90;;;;;;5050335;28;20048;-71
2022/03/17 05:36:49;;;;;;;16.88;8.65;;;7.90;99.90;;;;;;5083965;28;20041;-69
2022/03/17 05:39:14;;;;;;;25.25;9.30;;;7.90;99.90;;;;;;5050567;28;20044;-70
2022/03/17 05:41:41;;;;;;;13.10;8.95;;;7.90;99.90;;;;;;5033745;28;20045;-71
2022/03/17 05:44:08;;;;;;;18.00;8.00;;;7.90;99.90;;;;;;5084078;28;20067;-69
2022/03/17 05:46:34;;;;;;;22.98;8.32;;;7.80;99.90;;;;;;5050090;28;20083;-70
2022/03/17 05:49:00;;;;;;;17.65;7.35;;;7.80;99.90;;;;;;5051588;28;20511;-70
2022/03/17 05:51:26;;;;;;;17.88;6.70;;;7.80;99.90;;;;;;5083836;28;20551;-70
2022/03/17 05:53:52;;;;;;;16.00;7.32;;;7.80;99.90;;;;;;5034878;28;20045;-70
2022/03/17 05:56:18;;;;;;;18.25;5.45;;;7.80;99.90;;;;;;5053915;28;20056;-70
2022/03/17 05:58:43;;;;;;;13.73;5.53;;;7.80;99.90;;;;;;5054266;28;20033;-70
2022/03/17 06:01:09;;;;;;;18.98;6.05;;;7.80;99.90;;;;;;5070522;28;20531;-71
2022/03/17 06:03:35;;;;;;;19.65;5.72;;;7.80;99.90;;;;;;5052108;28;20045;-70
2022/03/17 06:06:01;;;;;;;11.50;4.93;;;7.80;99.90;;;;;;5054922;28;20072;-71
2022/03/17 06:08:27;;;;;;;11.68;4.55;;;7.80;99.90;;;;;;5031854;28;20036;-70
2022/03/17 06:10:52;;;;;;;16.65;4.00;;;7.80;99.90;;;;;;5054494;28;20453;-70
2022/03/17 06:13:18;;;;;;;16.05;3.83;;;7.80;99.90;;;;;;5053951;28;20037;-70
2022/03/17 06:15:44;;;;;;;18.17;5.07;;;7.80;99.90;;;;;;5054013;28;20489;-71
2022/03/17 06:18:11;;;;;;;14.45;3.85;;;7.80;99.90;;;;;;5053833;28;20067;-70
2022/03/17 06:20:38;;;;;;;13.73;3.60;;;7.80;99.90;;;;;;5054511;28;20060;-71
2022/03/17 06:23:06;;;;;;;15.23;3.40;;;7.80;99.90;;;;;;5053436;28;20051;-70
2022/03/17 06:25:34;;;;;;;14.60;3.97;;;7.80;99.90;;;;;;5053682;28;20036;-70
2022/03/17 06:28:00;;;;;;;12.60;3.35;;;7.80;99.90;;;;;;5053333;28;20457;-70
2022/03/17 06:30:30;;;;;;;17.60;2.85;;;7.80;99.90;;;;;;5054689;28;20076;-70
2022/03/17 06:32:56;;;;;;;8.40;2.20;;;7.80;99.90;;;;;;5052657;28;20040;-70
2022/03/17 06:35:25;;;;;;;12.40;2.55;;;7.80;99.90;;;;;;5054524;28;20075;-71
2022/03/17 06:37:55;;;;;;;10.55;2.53;;;7.80;99.90;;;;;;5036594;28;20127;-70
2022/03/17 06:40:22;;;;;;;7.63;2.42;;;7.80;99.90;;;;;;5053168;28;20485;-70
2022/03/17 06:42:49;;;;;;;17.15;2.88;;;7.80;99.90;;;;;;5053744;28;20037;-70
2022/03/17 06:45:16;;;;;;;12.85;3.03;;;7.80;99.90;;;;;;5053053;28;20090;-71
2022/03/17 06:47:42;;;;;;;16.33;2.50;;;7.80;99.90;;;;;;5054297;28;20397;-70
2022/03/17 06:50:10;;;;;;;10.13;2.35;;;7.80;99.90;;;;;;5054237;28;20052;-70
2022/03/17 06:52:36;;;;;;;16.70;3.20;;;7.80;99.90;;;;;;5052308;28;20037;-70
2022/03/17 06:55:02;;;;;;;14.60;2.72;;;7.70;99.90;;;;;;5053838;28;20131;-69
2022/03/17 06:57:28;;;;;;;11.93;2.58;;;7.70;99.90;;;;;;5037173;28;20049;-69
2022/03/17 06:59:54;;;;;;;9.18;2.90;;;7.70;99.90;;;;;;5053570;28;20044;-70
2022/03/17 07:02:20;;;;;;;12.27;2.45;;;7.70;99.90;;;;;;5053281;28;20048;-70
2022/03/17 07:04:46;;;;;;;14.52;3.42;;;7.70;99.90;;;;;;5054322;28;20044;-70
2022/03/17 07:07:13;;;;;;;11.82;2.55;;;7.70;99.90;;;;;;5052578;28;20199;-70
2022/03/17 07:09:39;;;;;;;12.60;3.05;;;7.70;99.90;;;;;;5053399;28;20037;-69
2022/03/17 07:12:05;;;;;;;6.30;2.00;;;7.70;99.90;;;;;;5086943;28;20036;-70
2022/03/17 07:14:31;;;;;;;6.78;1.73;;;7.70;99.90;;;;;;5052537;28;20120;-70
2022/03/17 07:16:57;;;;;;;13.57;1.90;;;7.70;99.90;;;;;;5053832;28;20123;-69
2022/03/17 07:19:23;;;;;;;7.82;1.42;;;7.70;99.90;;;;;;5052502;28;20045;-69
2022/03/17 07:21:49;;;;;;;12.90;2.50;;;7.70;99.90;;;;;;5052096;28;20555;-70
2022/03/17 07:24:15;;;;;;;10.13;2.20;;;7.70;99.90;;;;;;5053590;28;20080;-69
2022/03/17 07:26:41;;;;;;;11.45;2.30;;;7.70;99.90;;;;;;5054639;28;20128;-70
2022/03/17 07:29:07;;;;;;;10.05;1.65;;;7.70;99.90;;;;;;5053975;28;20124;-70
2022/03/17 07:31:34;;;;;;;10.88;2.60;;;7.70;99.90;;;;;;5049826;28;20520;-70
2022/03/17 07:34:01;;;;;;;15.23;2.10;;;7.70;99.90;;;;;;5052203;28;20386;-70
2022/03/17 07:36:27;;;;;;;13.00;1.92;;;7.70;99.90;;;;;;5085412;28;20052;-70
2022/03/17 07:38:58;;;;;;;12.63;2.63;;;7.70;99.90;;;;;;5053481;28;20043;-70
2022/03/17 07:41:24;;;;;;;12.57;2.80;;;7.70;99.90;;;;;;5052740;28;20079;-70
2022/03/17 07:43:51;;;;;;;12.65;2.75;;;7.70;99.90;;;;;;5053226;28;20492;-70
2022/03/17 07:46:18;;;;;;;14.98;2.15;;;7.70;99.90;;;;;;5085627;28;20048;-70
2022/03/17 07:48:44;;;;;;;12.20;2.67;;;7.70;99.90;;;;;;5085584;28;20048;-70
2022/03/17 07:51:10;;;;;;;14.10;2.28;;;7.70;99.90;;;;;;5053230;28;20045;-72
2022/03/17 07:53:37;;;;;;;15.27;2.78;;;7.70;99.90;;;;;;5053181;28;20033;-71
2022/03/17 07:56:04;;;;;;;15.82;3.40;;;7.60;99.90;;;;;;5034992;28;20116;-70
2022/03/17 07:58:32;;;;;;;10.98;2.13;;;7.60;99.90;;;;;;5052973;28;20049;-70
2022/03/17 08:01:00;;;;;;;12.18;2.80;;;7.60;99.90;;;;;;5052783;28;20044;-70
2022/03/17 08:03:26;;;;;;;17.10;2.50;;;7.60;99.90;;;;;;5050951;28;20043;-70
2022/03/17 08:05:52;;;;;;;16.08;2.53;;;7.70;99.90;;;;;;5084877;28;20033;-70
2022/03/17 08:08:19;;;;;;;13.15;2.35;;;7.70;99.90;;;;;;5051381;28;20040;-70
2022/03/17 08:10:45;;;;;;;10.15;2.47;;;7.70;99.90;;;;;;5051482;28;20106;-69
2022/03/17 08:13:12;;;;;;;15.20;2.42;;;7.70;99.90;;;;;;5052694;28;20155;-70
2022/03/17 08:15:39;;;;;;;9.23;2.72;;;7.70;99.90;;;;;;5052481;28;20041;-70
2022/03/17 08:18:08;;;;;;;14.65;3.05;;;7.70;99.90;;;;;;5052213;28;20039;-70
2022/03/17 08:20:41;;;;;;;11.45;3.15;;;7.70;99.90;;;;;;5048511;28;20049;-70
2022/03/17 08:23:08;;;;;;;16.00;2.47;;;7.70;99.90;;;;;;5051131;28;20041;-70
2022/03/17 08:25:35;;;;;;;9.13;2.03;;;7.80;99.90;;;;;;5051049;28;20075;-70
2022/03/17 08:28:02;;;;;;;11.02;2.22;;;7.80;99.90;;;;;;5052343;28;20076;-70
2022/03/17 08:30:36;;;;;;;15.23;3.63;;;7.70;99.90;;;;;;5051224;28;20405;-70
2022/03/17 08:33:02;;;;;;;14.73;2.45;;;7.70;99.90;;;;;;5048872;28;20116;-71
2022/03/17 08:35:28;;;;;;;14.18;3.03;;;7.80;99.90;;;;;;5050890;28;20033;-70
2022/03/17 08:37:57;;;;;;;11.23;2.13;;;7.80;99.90;;;;;;5048002;28;20091;-70
2022/03/17 08:40:23;;;;;;;13.30;2.63;;;7.80;99.90;;;;;;5051170;28;20047;-70
2022/03/17 08:42:49;;;;;;;13.90;1.95;;;7.90;99.90;;;;;;5050816;28;20048;-72
2022/03/17 08:50:57;;;;;;;11.98;2.10;;;8.10;99.90;;;;;;5007378;28;20436;-70
2022/03/17 08:53:23;;;;;;;11.18;2.50;;;8.10;99.90;;;;;;5050557;28;20071;-70
2022/03/17 08:55:49;;;;;;;16.83;2.80;;;8.10;99.90;;;;;;5051844;28;20049;-70
2022/03/17 08:58:16;;;;;;;10.02;2.25;;;8.10;99.90;;;;;;5052140;28;20120;-70
2022/03/17 09:00:43;;;;;;;10.20;1.83;;;8.00;99.90;;;;;;5050869;28;20041;-70
2022/03/17 09:03:09;;;;;;;8.50;2.40;;;8.00;99.90;;;;;;5050184;28;20378;-71
2022/03/17 09:05:35;;;;;;;12.73;3.33;;;8.00;99.90;;;;;;5050995;28;20048;-70
2022/03/17 09:08:04;;;;;;;9.65;2.28;;;8.00;99.90;;;;;;5050266;28;20041;-70
2022/03/17 09:10:31;;;;;;;11.25;2.10;;;8.10;99.90;;;;;;5051764;28;20470;-70
2022/03/17 09:12:59;;;;;;;12.85;2.95;;;8.10;99.90;;;;;;5050732;28;20088;-70
2022/03/17 09:15:25;;;;;;;11.23;2.60;;;8.50;99.90;;;;;;5052017;28;20037;-70
2022/03/17 09:17:51;;;;;;;10.88;2.13;;;9.20;99.90;;;;;;5050362;28;20405;-70
2022/03/17 09:20:17;;;;;;;8.85;1.60;;;9.70;99.90;;;;;;5050326;28;20048;-71
2022/03/17 09:22:44;;;;;;;13.70;2.33;;;10.10;99.90;;;;;;5050264;28;20045;-71
2022/03/17 09:25:11;;;;;;;9.52;1.60;;;10.00;99.90;;;;;;5051962;28;20037;-71
2022/03/17 09:27:37;;;;;;;11.02;2.50;;;9.80;99.90;;;;;;5051719;28;20454;-70
2022/03/17 09:30:04;;;;;;;7.03;1.58;;;9.80;99.90;;;;;;5037157;28;20155;-71
2022/03/17 09:32:30;;;;;;;7.60;1.90;;;10.00;99.90;;;;;;5052251;28;20044;-70
2022/03/17 09:34:58;;;;;;;7.03;1.17;;;10.00;99.90;;;;;;5055506;28;20041;-70
2022/03/17 09:37:25;;;;;;;9.07;1.60;;;9.80;99.90;;;;;;5055742;28;20072;-71
2022/03/17 09:39:51;;;;;;;9.73;1.67;;;9.70;99.90;;;;;;5089919;28;20452;-71
2022/03/17 09:42:19;;;;;;;10.38;1.70;;;9.70;99.90;;;;;;5058095;28;20041;-72
2022/03/17 09:44:47;;;;;;;9.15;1.98;;;9.70;99.90;;;;;;5055872;28;20041;-73
2022/03/17 09:47:19;;;;;;;10.63;1.52;;;9.70;99.90;;;;;;5090491;28;20392;-74
2022/03/17 09:49:48;;;;;;;8.85;1.70;;;9.80;99.90;;;;;;5057003;28;20371;-73
2022/03/17 09:52:17;;;;;;;8.48;1.75;;;9.90;99.90;;;;;;5056702;28;20072;-72
2022/03/17 09:54:51;;;;;;;6.90;1.63;;;10.40;99.90;;;;;;5024040;28;20041;-71
2022/03/17 09:57:17;;;;;;;5.55;1.95;;;10.60;99.90;;;;;;5056331;28;20040;-70
2022/03/17 09:59:45;;;;;;;10.77;1.80;;;10.80;99.90;;;;;;5054270;28;20508;-70
2022/03/17 10:02:16;;;;;;;11.88;2.13;;;11.40;99.90;;;;;;5036589;28;20041;-70
2022/03/17 10:04:47;;;;;;;11.50;2.00;;;11.70;99.90;;;;;;5056723;28;20048;-72
2022/03/17 10:07:15;;;;;;;7.75;1.83;;;11.30;99.90;;;;;;5088101;28;20056;-68
2022/03/17 10:09:42;;;;;;;8.38;2.20;;;10.90;99.90;;;;;;5054734;28;20037;-68
2022/03/17 10:12:10;;;;;;;11.93;1.83;;;11.10;99.90;;;;;;5055089;28;20052;-68
2022/03/17 10:14:50;;;;;;;14.00;2.60;;;11.40;99.90;;;;;;5054705;28;20041;-70
2022/03/17 10:17:39;;;;;;;10.77;2.13;;;11.40;99.90;;;;;;5054712;28;20143;-73
2022/03/17 10:20:15;;;;;;;7.03;1.95;;;11.30;99.90;;;;;;5054695;28;20043;-72
2022/03/17 10:22:53;;;;;;;12.77;2.33;;;11.40;99.90;;;;;;5054639;28;20055;-74
2022/03/17 10:25:24;;;;;;;9.50;1.67;;;11.30;99.90;;;;;;5071644;28;20124;-72
2022/03/17 10:27:55;;;;;;;11.50;1.90;;;11.30;99.90;;;;;;5054637;28;20056;-73
2022/03/17 10:30:34;;;;;;;13.27;2.35;;;11.50;99.90;;;;;;5085900;28;20496;-73
2022/03/17 10:33:18;;;;;;;6.82;1.90;;;11.70;99.90;;;;;;5051980;28;20045;-72
2022/03/17 10:35:46;;;;;;;12.05;1.92;;;11.60;99.90;;;;;;5086805;28;20047;-73
2022/03/17 10:38:16;;;;;;;10.60;2.30;;;11.30;99.90;;;;;;5053030;28;20045;-73
2022/03/17 10:40:44;;;;;;;9.25;2.08;;;11.40;99.90;;;;;;5069854;28;20064;-73
2022/03/17 10:43:24;;;;;;;9.75;2.35;;;11.60;99.90;;;;;;5052898;28;20056;-73
2022/03/17 10:46:21;;;;;;;10.50;2.05;;;11.70;99.90;;;;;;5086506;28;20044;-73
2022/03/17 10:49:06;;;;;;;9.00;2.35;;;11.60;99.90;;;;;;5054291;28;20040;-73
2022/03/17 10:51:43;;;;;;;5.68;1.80;;;11.70;99.90;;;;;;5053029;28;20029;-72
2022/03/17 10:54:19;;;;;;;8.18;1.70;;;12.00;99.90;;;;;;5052752;28;20045;-73
2022/03/17 10:57:05;;;;;;;17.00;3.50;;;12.60;99.90;;;;;;5086532;28;20464;-73
2022/03/17 10:59:43;;;;;;;9.00;2.20;;;12.60;99.90;;;;;;5036367;28;20303;-73
2022/03/17 11:02:10;;;;;;;14.52;2.40;;;12.50;99.90;;;;;;5051546;28;20044;-73
2022/03/17 11:04:38;;;;;;;5.57;2.00;;;13.00;99.90;;;;;;5053503;28;20581;-73
2022/03/17 11:07:07;;;;;;;11.18;2.88;;;13.50;99.90;;;;;;5044938;28;20038;-72
2022/03/17 11:09:36;;;;;;;11.05;2.20;;;13.50;99.90;;;;;;5066087;28;20055;-73
2022/03/17 11:12:03;;;;;;;7.97;1.93;;;13.40;99.20;;;;;;5034012;28;20387;-73
2022/03/17 11:14:29;;;;;;;9.32;2.13;;;13.40;97.60;;;;;;5034885;28;20037;-72
2022/03/17 11:16:58;;;;;;;5.80;1.67;;;13.80;96.60;;;;;;5065945;28;20045;-73
2022/03/17 11:19:24;;;;;;;9.68;2.08;;;13.90;94.60;;;;;;5032286;28;20077;-73
2022/03/17 11:22:05;;;;;;;10.38;2.45;;;13.50;92.60;;;;;;5065409;28;20517;-73
2022/03/17 11:24:30;;;;;;;;;;;13.70;94.40;;;;;;5033769;28;20448;-74
2022/03/17 11:27:08;;;;;;;9.05;2.00;;;13.90;94.30;;;;;;5033638;28;19921;-72
2022/03/17 11:29:45;;;;;;;9.50;2.05;;;13.80;92.80;;;;;;5033825;28;20042;-73
2022/03/17 11:32:31;;;;;;;10.95;1.90;;;13.60;91.80;;;;;;5029840;28;20069;-73
2022/03/17 11:35:09;;;;;;;6.95;2.03;;;13.70;91.80;;;;;;5032068;28;20043;-73
2022/03/17 11:37:35;;;;;;;8.68;1.85;;;13.80;90.60;;;;;;5048477;28;20116;-73
2022/03/17 11:40:14;;;;;;;12.77;1.88;;;13.60;90.40;;;;;;5032053;28;20049;-73
2022/03/17 11:42:54;;;;;;;11.63;2.47;;;13.60;90.70;;;;;;5033028;28;20041;-73
2022/03/17 11:45:23;;;;;;;9.55;2.08;;;13.10;90.60;;;;;;5031983;28;20049;-72
2022/03/17 11:47:53;;;;;;;7.97;1.92;;;12.90;92.00;;;;;;5032932;28;20276;-72
2022/03/17 11:50:23;;;;;;;9.23;2.00;;;12.70;92.10;;;;;;5033132;28;20048;-72
2022/03/17 11:52:57;;;;;;;9.18;1.90;;;12.70;92.00;;;;;;5047825;28;20033;-73
2022/03/17 11:55:47;;;;;;;9.90;2.15;;;12.70;92.70;;;;;;5032935;28;20045;-73
2022/03/17 11:58:16;;;;;;;11.38;2.10;;;12.70;93.70;;;;;;5032998;28;20297;-72
2022/03/17 12:01:02;;;;;;;21.20;2.78;;;13.50;94.80;;;;;;5032773;28;20067;-73
2022/03/17 12:03:45;;;;;;;6.20;1.80;;;14.00;87.70;;;;;;5030300;28;20041;-73
2022/03/17 12:06:19;;;;;;;9.32;2.92;;;13.80;89.10;;;;;;5032674;28;20037;-73
2022/03/17 12:08:52;;;;;;;8.88;1.92;;;13.90;89.00;;;;;;5052700;28;20036;-72
2022/03/17 12:11:22;;;;;;;9.55;2.53;;;14.00;88.40;;;;;;5068188;28;20045;-72
2022/03/17 12:14:14;;;;;;;9.35;2.20;;;13.90;89.60;;;;;;5084651;28;20048;-72
2022/03/17 12:17:01;;;;;;;9.52;1.75;;;13.70;89.30;;;;;;5051289;28;20053;-72
2022/03/17 12:19:38;;;;;;;8.75;2.22;;;13.30;87.40;;;;;;5067474;28;20045;-73
2022/03/17 12:22:35;;;;;;;7.18;1.48;;;12.90;89.50;;;;;;5052156;28;20532;-72
2022/03/17 12:25:14;;;;;;;9.43;1.77;;;12.60;88.40;;;;;;5067832;28;20052;-72
2022/03/17 12:27:41;;;;;;;13.13;2.95;;;12.20;88.90;;;;;;5051048;28;20045;-72
2022/03/17 12:30:12;;;;;;;10.20;2.45;;;11.90;90.40;;;;;;5052264;28;20128;-69
2022/03/17 12:32:49;;;;;;;17.00;3.63;;;11.70;92.00;;;;;;5049799;28;20068;-72
2022/03/17 12:35:16;;;;;;;14.93;2.72;;;12.10;93.20;;;;;;5052366;28;20044;-72
2022/03/17 12:37:43;;;;;;;10.02;2.30;;;12.70;93.80;;;;;;5052274;28;20076;-73
2022/03/17 12:40:13;;;;;;;8.52;2.78;;;13.40;93.70;;;;;;5052202;28;20412;-73
2022/03/17 12:42:45;;;;;;;9.90;2.10;;;13.80;92.20;;;;;;5050858;28;20452;-72
2022/03/17 12:45:16;;;;;;;14.20;2.40;;;14.20;90.80;;;;;;5052463;28;20118;-73
2022/03/17 12:47:46;;;;;;;10.60;2.35;;;13.80;89.70;;;;;;5050867;28;20059;-73
2022/03/17 12:50:15;;;;;;;11.65;2.15;;;13.40;90.40;;;;;;5050815;28;20037;-69
2022/03/17 12:52:43;;;;;;;8.43;2.22;;;13.10;90.60;;;;;;5084473;28;20041;-73
2022/03/17 12:55:10;;;;;;;10.43;2.95;;;13.40;91.20;;;;;;5051811;28;20072;-72
2022/03/17 12:57:40;;;;;;;11.73;2.38;;;13.60;90.60;;;;;;5084129;28;20176;-71
2022/03/17 13:00:12;;;;;;;10.68;2.63;;;13.80;90.60;;;;;;5050896;28;20048;-72
2022/03/17 13:02:48;;;;;;;11.27;2.95;;;13.80;89.40;;;;;;5048123;28;20052;-72
2022/03/17 13:08:04;;;;;;;12.77;1.95;;;14.10;88.80;;;;;;5033692;28;20501;-71